createdAt,value
2022-11-10T00:00:15.943Z,11.10
2022-11-10T00:02:45.527Z,10.00
2022-11-10T00:05:12.816Z,11.40
2022-11-10T00:07:39.603Z,10.00
2022-11-10T00:10:06.857Z,10.10
2022-11-10T00:12:33.591Z,10.00
2022-11-10T00:15:19.131Z,9.90
2022-11-10T00:17:45.807Z,9.90
2022-11-10T00:20:12.784Z,9.90
2022-11-10T00:22:40.022Z,11.10
2022-11-10T00:25:06.868Z,11.30
2022-11-10T00:27:33.510Z,9.80
2022-11-10T00:30:00.298Z,9.70
2022-11-10T00:32:26.981Z,9.90
2022-11-10T00:34:53.607Z,10.00
2022-11-10T00:37:20.426Z,9.60
2022-11-10T00:39:47.088Z,10.50
2022-11-10T00:42:14.014Z,9.40
2022-11-10T00:44:40.868Z,9.40
2022-11-10T00:47:07.505Z,9.40
2022-11-10T00:49:34.130Z,10.40
2022-11-10T00:52:00.707Z,9.40
2022-11-10T00:54:27.290Z,9.10
2022-11-10T00:56:53.856Z,10.40
2022-11-10T00:59:20.427Z,9.00
2022-11-10T01:01:46.990Z,9.10
2022-11-10T01:04:13.598Z,10.40
2022-11-10T01:06:40.320Z,10.20
2022-11-10T01:09:07.143Z,10.80
2022-11-10T01:11:33.734Z,8.90
2022-11-10T01:14:00.333Z,10.10
2022-11-10T01:16:28.244Z,8.80
2022-11-10T01:18:59.258Z,8.80
2022-11-10T01:21:26.572Z,8.60
2022-11-10T01:23:53.234Z,9.70
2022-11-10T01:26:20.447Z,10.30
2022-11-10T01:28:47.467Z,8.40
2022-11-10T01:31:18.573Z,10.30
2022-11-10T01:33:45.230Z,8.30
2022-11-10T01:36:12.254Z,9.60
2022-11-10T01:38:40.204Z,9.10
2022-11-10T01:41:11.623Z,9.10
2022-11-10T01:43:38.469Z,7.80
2022-11-10T01:46:06.155Z,7.80
2022-11-10T01:48:38.937Z,7.60
2022-11-10T01:51:14.894Z,7.50
2022-11-10T01:53:43.767Z,7.50
2022-11-10T01:56:11.698Z,8.70
2022-11-10T01:58:40.246Z,7.60
2022-11-10T02:01:08.053Z,8.10
2022-11-10T02:03:34.648Z,9.10
2022-11-10T02:06:01.334Z,8.70
2022-11-10T02:08:28.147Z,7.90
2022-11-10T02:10:55.415Z,7.80
2022-11-10T02:13:22.296Z,9.10
2022-11-10T02:15:49.142Z,7.90
2022-11-10T02:18:15.870Z,7.70
2022-11-10T02:20:45.988Z,8.90
2022-11-10T02:23:13.729Z,7.60
2022-11-10T02:25:40.406Z,7.80
2022-11-10T02:28:07.156Z,7.40
2022-11-10T02:30:33.738Z,7.40
2022-11-10T02:33:00.367Z,8.40
2022-11-10T02:35:27.047Z,7.30
2022-11-10T02:37:53.697Z,8.70
2022-11-10T02:40:20.321Z,7.80
2022-11-10T02:42:46.941Z,7.00
2022-11-10T02:45:13.607Z,7.00
2022-11-10T02:47:40.171Z,6.80
2022-11-10T02:50:06.982Z,6.90
2022-11-10T02:52:33.595Z,6.80
2022-11-10T02:55:00.348Z,8.00
2022-11-10T02:57:26.981Z,7.90
2022-11-10T02:59:53.647Z,6.60
2022-11-10T03:02:20.283Z,6.50
2022-11-10T03:04:46.893Z,6.60
2022-11-10T03:07:13.573Z,6.60
2022-11-10T03:09:40.219Z,7.90
2022-11-10T03:12:06.908Z,6.40
2022-11-10T03:14:33.575Z,6.40
2022-11-10T03:17:00.279Z,6.40
2022-11-10T03:19:27.076Z,6.30
2022-11-10T03:21:53.759Z,6.20
2022-11-10T03:24:20.360Z,6.10
2022-11-10T03:26:46.910Z,6.00
2022-11-10T03:29:13.497Z,5.90
2022-11-10T03:31:40.156Z,6.60
2022-11-10T03:34:06.906Z,7.40
2022-11-10T03:36:33.651Z,6.20
2022-11-10T03:39:00.327Z,5.80
2022-11-10T03:41:26.915Z,5.90
2022-11-10T03:43:53.542Z,5.90
2022-11-10T03:46:20.113Z,5.90
2022-11-10T03:48:52.999Z,6.80
2022-11-10T03:51:20.028Z,5.50
2022-11-10T03:53:46.618Z,6.80
2022-11-10T03:56:13.332Z,5.40
2022-11-10T03:58:40.722Z,5.40
2022-11-10T04:01:07.495Z,5.40
2022-11-10T04:03:34.363Z,5.50
2022-11-10T04:06:19.855Z,6.80
2022-11-10T04:09:01.592Z,7.70
2022-11-10T04:11:47.582Z,5.50
2022-11-10T04:14:32.869Z,5.50
2022-11-10T04:16:59.615Z,5.30
2022-11-10T04:19:26.391Z,5.30
2022-11-10T04:21:53.295Z,5.40
2022-11-10T04:24:20.336Z,6.70
2022-11-10T04:26:48.643Z,5.30
2022-11-10T04:29:16.192Z,6.10
2022-11-10T04:31:43.390Z,5.40
2022-11-10T04:34:11.533Z,5.40
2022-11-10T04:39:12.760Z,5.00
2022-11-10T04:41:39.384Z,5.80
2022-11-10T04:44:06.165Z,5.40
2022-11-10T04:46:37.130Z,5.20
2022-11-10T04:49:04.498Z,5.30
2022-11-10T04:51:32.590Z,6.90
2022-11-10T04:53:59.555Z,6.60
2022-11-10T04:56:26.562Z,5.20
2022-11-10T04:58:53.520Z,6.80
2022-11-10T05:01:21.370Z,6.40
2022-11-10T05:03:50.376Z,5.10
2022-11-10T05:06:18.337Z,5.10
2022-11-10T05:08:45.335Z,5.30
2022-11-10T05:11:12.290Z,5.50
2022-11-10T05:13:39.299Z,7.60
2022-11-10T05:16:06.463Z,5.50
2022-11-10T05:18:33.400Z,5.60
2022-11-10T05:21:00.019Z,7.20
2022-11-10T05:23:38.883Z,7.10
2022-11-10T05:26:06.940Z,6.80
2022-11-10T05:28:34.028Z,5.60
2022-11-10T05:31:00.689Z,7.10
2022-11-10T05:33:27.407Z,5.80
2022-11-10T05:35:54.146Z,7.30
2022-11-10T05:38:22.215Z,6.50
2022-11-10T05:40:48.921Z,7.30
2022-11-10T05:43:15.665Z,5.30
2022-11-10T05:45:42.567Z,6.40
2022-11-10T05:48:09.314Z,6.00
2022-11-10T05:50:36.036Z,6.90
2022-11-10T05:53:02.768Z,6.10
2022-11-10T05:55:29.779Z,5.60
2022-11-10T05:57:57.133Z,8.40
2022-11-10T06:00:25.414Z,7.60
2022-11-10T06:03:02.651Z,5.70
2022-11-10T06:05:31.421Z,5.70
2022-11-10T06:07:58.592Z,6.30
2022-11-10T06:10:25.566Z,5.70
2022-11-10T06:12:52.332Z,5.60
2022-11-10T06:15:19.120Z,5.70
2022-11-10T06:17:46.010Z,6.80
2022-11-10T06:20:13.954Z,6.80
2022-11-10T06:22:40.957Z,5.70
2022-11-10T06:25:08.431Z,5.80
2022-11-10T06:27:35.066Z,5.70
2022-11-10T06:30:01.856Z,5.60
2022-11-10T06:32:28.515Z,5.60
2022-11-10T06:35:00.446Z,5.60
2022-11-10T06:37:27.575Z,5.60
2022-11-10T06:39:54.248Z,5.50
2022-11-10T06:42:20.876Z,6.60
2022-11-10T06:44:47.518Z,5.80
2022-11-10T06:47:16.944Z,7.00
2022-11-10T06:49:43.562Z,5.40
2022-11-10T06:52:10.180Z,6.70
2022-11-10T06:54:36.869Z,6.90
2022-11-10T06:57:03.528Z,6.70
2022-11-10T06:59:30.267Z,5.60
2022-11-10T07:01:56.866Z,6.80
2022-11-10T07:04:23.582Z,5.80
2022-11-10T07:06:50.239Z,5.80
2022-11-10T07:09:16.936Z,8.20
2022-11-10T07:11:43.800Z,5.70
2022-11-10T07:14:10.495Z,7.90
2022-11-10T07:16:37.452Z,5.70
2022-11-10T07:19:04.141Z,6.70
2022-11-10T07:21:30.789Z,6.70
2022-11-10T07:23:57.404Z,8.50
2022-11-10T07:26:24.122Z,8.70
2022-11-10T07:28:50.768Z,7.20
2022-11-10T07:31:17.395Z,6.70
2022-11-10T07:33:44.188Z,8.10
2022-11-10T07:36:10.957Z,8.60
2022-11-10T07:38:37.664Z,8.00
2022-11-10T07:41:04.345Z,6.40
2022-11-10T07:43:31.072Z,6.60
2022-11-10T07:45:57.775Z,6.60
2022-11-10T07:48:24.443Z,6.80
2022-11-10T07:50:51.167Z,7.30
2022-11-10T07:53:19.939Z,8.30
2022-11-10T07:55:47.246Z,8.50
2022-11-10T07:58:17.749Z,7.90
2022-11-10T08:00:45.096Z,8.20
2022-11-10T08:03:13.239Z,8.30
2022-11-10T08:05:40.148Z,8.30
2022-11-10T08:08:07.223Z,8.40
2022-11-10T08:10:34.733Z,8.60
2022-11-10T08:13:02.836Z,7.60
2022-11-10T08:15:31.101Z,9.00
2022-11-10T08:17:58.617Z,8.60
2022-11-10T08:20:25.381Z,7.60
2022-11-10T08:22:56.778Z,7.70
2022-11-10T08:25:23.614Z,7.70
2022-11-10T08:27:56.478Z,7.70
2022-11-10T08:30:23.094Z,7.90
2022-11-10T08:32:50.093Z,8.60
2022-11-10T08:35:16.854Z,7.70
2022-11-10T08:37:43.555Z,7.70
2022-11-10T08:40:10.437Z,7.80
2022-11-10T08:42:37.130Z,7.90
2022-11-10T08:45:03.830Z,7.80
2022-11-10T08:47:30.401Z,7.90
2022-11-10T08:49:57.014Z,9.70
2022-11-10T08:52:23.682Z,8.60
2022-11-10T08:54:50.345Z,9.40
2022-11-10T08:57:17.085Z,8.00
2022-11-10T08:59:43.827Z,8.40
2022-11-10T09:02:10.676Z,8.20
2022-11-10T09:04:37.825Z,9.50
2022-11-10T09:07:04.517Z,9.30
2022-11-10T09:09:31.167Z,9.40
2022-11-10T09:11:57.839Z,8.10
2022-11-10T09:14:24.540Z,9.30
2022-11-10T09:16:51.174Z,9.60
2022-11-10T09:19:21.273Z,8.80
2022-11-10T09:21:48.180Z,8.30
2022-11-10T09:24:14.834Z,8.40
2022-11-10T09:26:45.619Z,8.50
2022-11-10T09:29:12.434Z,8.50
2022-11-10T09:31:39.147Z,10.10
2022-11-10T09:34:05.942Z,8.70
2022-11-10T09:36:32.560Z,8.80
2022-11-10T09:38:59.278Z,8.90
2022-11-10T09:41:29.836Z,10.00
2022-11-10T09:44:04.153Z,9.00
2022-11-10T09:46:32.550Z,9.10
2022-11-10T09:49:03.435Z,9.10
2022-11-10T09:51:35.945Z,9.10
2022-11-10T09:54:04.563Z,9.10
2022-11-10T09:56:33.278Z,9.20
2022-11-10T09:59:00.391Z,9.50
2022-11-10T10:01:36.535Z,9.30
2022-11-10T10:04:13.280Z,9.30
2022-11-10T10:07:05.321Z,9.40
2022-11-10T10:09:38.154Z,9.50
2022-11-10T10:12:24.731Z,9.60
2022-11-10T10:15:03.763Z,9.70
2022-11-10T10:17:41.632Z,9.80
2022-11-10T10:20:20.423Z,9.90
2022-11-10T10:23:10.477Z,10.00
2022-11-10T10:25:38.786Z,10.00
2022-11-10T10:28:24.262Z,10.50
2022-11-10T10:30:51.357Z,10.20
2022-11-10T10:33:22.216Z,11.00
2022-11-10T10:35:50.633Z,10.20
2022-11-10T10:38:23.751Z,10.40
2022-11-10T10:40:51.696Z,10.40
2022-11-10T10:43:18.398Z,10.50
2022-11-10T10:45:45.502Z,11.20
2022-11-10T10:48:26.197Z,10.70
2022-11-10T10:50:52.904Z,10.70
2022-11-10T10:53:19.702Z,10.80
2022-11-10T10:55:48.032Z,11.00
2022-11-10T10:58:24.375Z,11.30
2022-11-10T11:00:52.891Z,11.20
2022-11-10T11:03:24.387Z,12.00
2022-11-10T11:06:01.765Z,12.10
2022-11-10T11:08:28.420Z,11.40
2022-11-10T11:10:55.044Z,11.50
2022-11-10T11:13:23.190Z,11.50
2022-11-10T11:16:16.289Z,11.60
2022-11-10T11:18:43.015Z,11.70
2022-11-10T11:21:18.797Z,11.70
2022-11-10T11:23:53.120Z,11.80
2022-11-10T11:26:23.346Z,11.60
2022-11-10T11:29:06.407Z,12.50
2022-11-10T11:32:11.694Z,11.90
2022-11-10T11:34:58.656Z,12.00
2022-11-10T11:37:28.090Z,12.00
2022-11-10T11:40:13.385Z,12.00
2022-11-10T11:42:52.325Z,12.10
2022-11-10T11:45:22.081Z,12.10
2022-11-10T11:48:07.786Z,12.20
2022-11-10T11:50:37.395Z,12.20
2022-11-10T11:53:22.862Z,12.20
2022-11-10T11:55:52.649Z,12.30
2022-11-10T11:58:33.048Z,12.30
2022-11-10T12:01:06.591Z,12.30
2022-11-10T12:03:39.697Z,12.30
2022-11-10T12:06:18.743Z,12.30
2022-11-10T12:08:51.723Z,12.30
2022-11-10T12:11:24.480Z,12.20
2022-11-10T12:14:12.943Z,12.20
2022-11-10T12:16:41.056Z,12.10
2022-11-10T12:19:17.846Z,12.30
2022-11-10T12:21:44.485Z,12.20
2022-11-10T12:24:11.124Z,12.00
2022-11-10T12:26:50.975Z,12.10
2022-11-10T12:29:36.174Z,11.50
2022-11-10T12:32:23.315Z,12.10
2022-11-10T12:34:53.716Z,12.30
2022-11-10T12:37:40.999Z,12.30
2022-11-10T12:40:21.869Z,12.40
2022-11-10T12:42:59.081Z,12.40
2022-11-10T12:45:27.541Z,12.50
2022-11-10T12:47:55.050Z,12.60
2022-11-10T12:50:40.488Z,13.10
2022-11-10T12:53:10.182Z,12.50
2022-11-10T12:55:45.641Z,12.50
2022-11-10T12:58:13.292Z,12.50
2022-11-10T13:00:43.334Z,12.50
2022-11-10T13:03:25.466Z,12.50
2022-11-10T13:05:55.092Z,12.50
2022-11-10T13:08:27.746Z,12.60
2022-11-10T13:10:55.374Z,12.40
2022-11-10T13:13:22.807Z,14.70
2022-11-10T13:15:51.165Z,13.90
2022-11-10T13:18:23.817Z,12.50
2022-11-10T13:20:54.770Z,12.30
2022-11-10T13:23:31.938Z,12.30
2022-11-10T13:25:58.784Z,12.30
2022-11-10T13:28:44.172Z,12.30
2022-11-10T13:31:29.144Z,12.30
2022-11-10T13:34:04.883Z,12.30
2022-11-10T13:36:44.519Z,12.30
2022-11-10T13:39:23.052Z,12.30
2022-11-10T13:42:04.665Z,12.30
2022-11-10T13:44:32.985Z,12.30
2022-11-10T13:46:59.671Z,12.70
2022-11-10T13:49:41.367Z,12.30
2022-11-10T13:52:26.855Z,12.10
2022-11-10T13:55:16.869Z,12.10
2022-11-10T13:58:00.373Z,12.10
2022-11-10T14:00:28.635Z,12.00
2022-11-10T14:02:56.740Z,12.00
2022-11-10T14:05:29.724Z,13.40
2022-11-10T14:08:16.617Z,12.10
2022-11-10T14:10:49.613Z,14.30
2022-11-10T14:13:17.869Z,12.10
2022-11-10T14:15:45.924Z,14.50
2022-11-10T14:18:27.133Z,14.10
2022-11-10T14:20:57.853Z,12.00
2022-11-10T14:23:33.810Z,12.00
2022-11-10T14:26:03.454Z,12.00
2022-11-10T14:28:34.599Z,13.40
2022-11-10T14:31:01.337Z,12.00
2022-11-10T14:33:28.097Z,12.00
2022-11-10T14:36:02.040Z,13.40
2022-11-10T14:38:33.828Z,11.80
2022-11-10T14:41:03.079Z,11.80
2022-11-10T14:43:33.646Z,12.90
2022-11-10T14:46:01.562Z,11.60
2022-11-10T14:48:29.796Z,11.60
2022-11-10T14:51:02.579Z,11.60
2022-11-10T14:53:33.508Z,11.50
2022-11-10T14:56:01.848Z,11.50
2022-11-10T14:58:35.813Z,11.50
2022-11-10T15:01:03.837Z,11.40
2022-11-10T15:03:33.635Z,11.30
2022-11-10T15:06:01.958Z,11.40
2022-11-10T15:11:39.603Z,11.30
2022-11-10T15:14:26.653Z,11.30
2022-11-10T15:17:00.617Z,11.70
2022-11-10T15:19:30.094Z,11.20
2022-11-10T15:22:04.385Z,11.10
2022-11-10T15:24:31.120Z,12.00
2022-11-10T15:26:57.784Z,11.00
2022-11-10T15:29:24.578Z,11.00
2022-11-10T15:31:52.060Z,10.90
2022-11-10T15:34:29.265Z,10.70
2022-11-10T15:37:12.735Z,10.50
2022-11-10T15:39:39.521Z,10.40
2022-11-10T15:42:16.482Z,10.30
2022-11-10T15:44:45.623Z,10.30
2022-11-10T15:47:13.674Z,10.30
2022-11-10T15:49:40.673Z,10.20
2022-11-10T15:52:17.659Z,10.10
2022-11-10T15:54:44.591Z,10.00
2022-11-10T15:57:12.392Z,9.80
2022-11-10T15:59:39.107Z,9.80
2022-11-10T16:02:17.899Z,9.70
2022-11-10T16:04:44.739Z,9.60
2022-11-10T16:07:11.600Z,9.40
2022-11-10T16:09:38.361Z,9.00
2022-11-10T16:12:05.369Z,8.90
2022-11-10T16:14:31.966Z,8.70
2022-11-10T16:16:58.688Z,10.90
2022-11-10T16:19:25.365Z,8.40
2022-11-10T16:21:52.086Z,8.20
2022-11-10T16:24:19.122Z,8.10
2022-11-10T16:26:45.807Z,7.90
2022-11-10T16:29:13.885Z,7.90
2022-11-10T16:31:42.429Z,7.80
2022-11-10T16:34:13.745Z,8.70
2022-11-10T16:36:41.654Z,7.60
2022-11-10T16:39:11.373Z,7.40
2022-11-10T16:41:37.989Z,7.40
2022-11-10T16:44:05.590Z,7.50
2022-11-10T16:46:32.796Z,7.50
2022-11-10T16:49:00.607Z,7.50
2022-11-10T16:51:29.278Z,8.70
2022-11-10T16:53:56.083Z,9.80
2022-11-10T16:56:23.183Z,9.30
2022-11-10T16:58:49.903Z,9.90
2022-11-10T17:01:19.025Z,8.10
2022-11-10T17:03:50.620Z,9.00
2022-11-10T17:06:18.274Z,8.10
2022-11-10T17:08:46.512Z,10.60
2022-11-10T17:11:13.181Z,8.20
2022-11-10T17:13:40.013Z,9.80
2022-11-10T17:16:08.076Z,8.20
2022-11-10T17:18:35.288Z,8.10
2022-11-10T17:21:02.710Z,8.20
2022-11-10T17:23:29.430Z,8.00
2022-11-10T17:25:56.358Z,10.20
2022-11-10T17:28:22.914Z,7.90
2022-11-10T17:30:49.674Z,7.90
2022-11-10T17:33:16.316Z,9.40
2022-11-10T17:35:44.808Z,9.30
2022-11-10T17:38:12.510Z,8.70
2022-11-10T17:40:40.719Z,8.40
2022-11-10T17:43:09.261Z,7.30
2022-11-10T17:45:35.896Z,7.10
2022-11-10T17:48:02.581Z,9.20
2022-11-10T17:50:31.205Z,6.80
2022-11-10T17:53:00.542Z,6.80
2022-11-10T17:55:34.178Z,6.80
2022-11-10T17:58:01.142Z,8.60
2022-11-10T18:00:27.771Z,6.80
2022-11-10T18:02:57.357Z,8.60
2022-11-10T18:05:23.977Z,7.10
2022-11-10T18:07:53.742Z,6.80
2022-11-10T18:10:20.818Z,6.80
2022-11-10T18:12:47.587Z,6.70
2022-11-10T18:15:15.261Z,8.30
2022-11-10T18:17:42.147Z,8.70
2022-11-10T18:20:10.052Z,8.20
2022-11-10T18:22:36.796Z,6.50
2022-11-10T18:25:03.761Z,8.50
2022-11-10T18:27:31.297Z,6.30
2022-11-10T18:29:58.424Z,6.20
2022-11-10T18:32:25.145Z,6.10
2022-11-10T18:34:51.898Z,6.00
2022-11-10T18:37:19.192Z,7.70
2022-11-10T18:39:45.970Z,6.00
2022-11-10T18:42:12.999Z,5.80
2022-11-10T18:44:39.672Z,5.70
2022-11-10T18:47:07.105Z,7.50
2022-11-10T18:49:33.731Z,8.30
2022-11-10T18:52:00.585Z,7.70
2022-11-10T18:54:27.506Z,7.60
2022-11-10T18:56:54.215Z,5.60
2022-11-10T18:59:21.213Z,5.60
2022-11-10T19:01:47.959Z,5.50
2022-11-10T19:04:14.769Z,5.40
2022-11-10T19:06:41.700Z,5.30
2022-11-10T19:09:08.448Z,5.20
2022-11-10T19:11:35.168Z,5.20
2022-11-10T19:14:02.444Z,5.20
2022-11-10T19:16:30.069Z,5.10
2022-11-10T19:18:57.126Z,5.20
2022-11-10T19:21:27.615Z,5.10
2022-11-10T19:23:55.075Z,6.20
2022-11-10T19:26:23.066Z,5.10
2022-11-10T19:28:50.086Z,5.10
2022-11-10T19:31:17.917Z,5.00
2022-11-10T19:33:45.515Z,5.00
2022-11-10T19:36:13.996Z,7.30
2022-11-10T19:38:41.045Z,4.90
2022-11-10T19:41:09.011Z,5.00
2022-11-10T19:43:35.732Z,5.10
2022-11-10T19:46:03.313Z,7.40
2022-11-10T19:48:31.041Z,5.20
2022-11-10T19:50:58.413Z,5.20
2022-11-10T19:53:25.486Z,5.20
2022-11-10T19:55:52.621Z,6.60
2022-11-10T19:58:19.269Z,5.10
2022-11-10T20:00:47.238Z,5.20
2022-11-10T20:03:14.289Z,5.10
2022-11-10T20:05:41.814Z,5.10
2022-11-10T20:08:15.341Z,5.20
2022-11-10T20:10:43.349Z,5.20
2022-11-10T20:13:10.839Z,6.80
2022-11-10T20:15:41.201Z,5.80
2022-11-10T20:18:08.686Z,5.10
2022-11-10T20:20:36.641Z,5.20
2022-11-10T20:23:07.089Z,2.70
2022-11-10T20:25:34.351Z,5.20
2022-11-10T20:28:06.416Z,5.20
2022-11-10T20:30:34.401Z,5.20
2022-11-10T20:33:01.613Z,5.10
2022-11-10T20:35:28.328Z,5.10
2022-11-10T20:37:55.083Z,5.10
2022-11-10T20:40:43.456Z,5.10
2022-11-10T20:43:08.857Z,5.00
2022-11-10T20:45:37.525Z,6.30
2022-11-10T20:48:04.309Z,4.90
2022-11-10T20:50:30.949Z,4.80
2022-11-10T20:52:57.738Z,4.90
2022-11-10T20:55:51.722Z,4.90
2022-11-10T20:58:11.592Z,5.00
2022-11-10T21:00:41.666Z,5.00
2022-11-10T21:03:08.329Z,5.00
2022-11-10T21:05:35.015Z,4.10
2022-11-10T21:08:01.700Z,5.00
2022-11-10T21:10:28.372Z,7.40
2022-11-10T21:12:55.083Z,5.00
2022-11-10T21:15:21.758Z,5.90
2022-11-10T21:17:48.452Z,4.90
2022-11-10T21:20:15.333Z,4.80
2022-11-10T21:22:42.041Z,6.40
2022-11-10T21:25:08.815Z,4.90
2022-11-10T21:27:35.536Z,4.90
2022-11-10T21:30:02.239Z,5.10
2022-11-10T21:32:28.935Z,5.20
2022-11-10T21:34:55.578Z,7.70
2022-11-10T21:37:23.688Z,5.00
2022-11-10T21:39:50.307Z,4.80
2022-11-10T21:42:20.741Z,4.70
2022-11-10T21:44:47.422Z,4.60
2022-11-10T21:47:14.436Z,4.60
2022-11-10T21:49:41.201Z,4.60
2022-11-10T21:52:07.882Z,4.50
2022-11-10T21:54:34.662Z,4.40
2022-11-10T21:57:01.460Z,4.40
2022-11-10T21:59:28.201Z,7.10
2022-11-10T22:01:54.937Z,4.50
2022-11-10T22:04:21.594Z,4.70
2022-11-10T22:07:07.044Z,4.70
2022-11-10T22:09:52.501Z,6.00
2022-11-10T22:12:38.021Z,4.80
2022-11-10T22:15:23.820Z,4.70
2022-11-10T22:18:09.182Z,4.70
2022-11-10T22:20:35.918Z,4.80
2022-11-10T22:23:02.827Z,4.60
2022-11-10T22:25:29.506Z,4.60
2022-11-10T22:27:56.366Z,4.40
2022-11-10T22:30:23.115Z,4.30
2022-11-10T22:32:49.925Z,4.20
2022-11-10T22:35:36.559Z,4.10
2022-11-10T22:41:16.976Z,5.00
2022-11-10T22:44:02.357Z,6.20
2022-11-10T22:46:29.436Z,5.80
2022-11-10T22:48:56.219Z,6.00
2022-11-10T22:51:23.053Z,4.90
2022-11-10T22:53:49.859Z,5.60
2022-11-10T22:56:16.689Z,4.40
2022-11-10T22:58:43.461Z,4.30
2022-11-10T23:01:11.708Z,6.00
2022-11-10T23:03:39.148Z,6.20
2022-11-10T23:06:06.103Z,4.40
2022-11-10T23:08:33.038Z,4.40
2022-11-10T23:11:04.539Z,5.80
2022-11-10T23:13:33.093Z,4.10
2022-11-10T23:16:07.491Z,6.00
2022-11-10T23:18:34.164Z,4.00
2022-11-10T23:21:02.042Z,4.60
2022-11-10T23:23:31.156Z,5.10
2022-11-10T23:25:59.951Z,4.90
2022-11-10T23:28:27.241Z,5.80
2022-11-10T23:30:54.146Z,5.20
2022-11-10T23:33:21.148Z,5.40
2022-11-10T23:35:48.053Z,5.00
2022-11-10T23:38:14.773Z,4.60
2022-11-10T23:40:41.495Z,5.70
2022-11-10T23:43:08.124Z,5.20
2022-11-10T23:46:00.454Z,5.50
2022-11-10T23:48:22.292Z,4.70
2022-11-10T23:50:49.496Z,5.00
2022-11-10T23:53:16.760Z,5.40
2022-11-10T23:55:43.648Z,4.70
2022-11-10T23:58:10.373Z,5.00
